QFA050 YSSY-YMML
Flight info
| Callsign | QFA050 |
|---|---|
| Flight time | 1h 7m |
| Altitude | 38000 |
| Route | KEVIN7/16L KEVIN WOL H65 LEECE Q29 ML |
| Aircraft | A21N/M-SDE2E3FGHIRWXY/LB1 |
Departure
| Time | 2026-04-21 04:18 |
|---|---|
| Airport | Sydney Kingsford Smith International Airport (YSSY) |
Arrival
| Time | 2026-04-21 05:25 |
|---|---|
| Airport | Melbourne Airport (YMML) |
| Time | Latitude | Longitude | Altitude | Speed | Heading |
|---|---|---|---|---|---|
| 2026-04-21 03:48 | -33.94341 | 151.18012 | 31 ft | 0 kts | 169° |
| 2026-04-21 04:05 | -33.94340 | 151.18012 | 31 ft | 2 kts | 169° |
| 2026-04-21 04:05 | -33.94323 | 151.18008 | 30 ft | 3 kts | 169° |
| 2026-04-21 04:06 | -33.94305 | 151.18004 | 31 ft | 3 kts | 169° |
| 2026-04-21 04:06 | -33.94288 | 151.18001 | 31 ft | 3 kts | 187° |
| 2026-04-21 04:06 | -33.94270 | 151.18007 | 30 ft | 3 kts | 222° |
| 2026-04-21 04:06 | -33.94258 | 151.18025 | 28 ft | 3 kts | 256° |
| 2026-04-21 04:07 | -33.94258 | 151.18028 | 28 ft | 0 kts | 259° |
| 2026-04-21 04:09 | -33.94258 | 151.18023 | 31 ft | 2 kts | 259° |
| 2026-04-21 04:09 | -33.94262 | 151.18000 | 31 ft | 3 kts | 259° |
| 2026-04-21 04:09 | -33.94268 | 151.17965 | 31 ft | 6 kts | 258° |
| 2026-04-21 04:09 | -33.94282 | 151.17915 | 30 ft | 7 kts | 239° |
| 2026-04-21 04:10 | -33.94309 | 151.17856 | 30 ft | 9 kts | 243° |
| 2026-04-21 04:10 | -33.94323 | 151.17788 | 28 ft | 10 kts | 274° |
| 2026-04-21 04:10 | -33.94309 | 151.17752 | 27 ft | 0 kts | 309° |
| 2026-04-21 04:10 | -33.94255 | 151.17713 | 27 ft | 14 kts | 336° |
| 2026-04-21 04:11 | -33.94163 | 151.17684 | 27 ft | 14 kts | 346° |
| 2026-04-21 04:11 | -33.94075 | 151.17658 | 27 ft | 14 kts | 346° |
| 2026-04-21 04:11 | -33.93974 | 151.17628 | 28 ft | 16 kts | 348° |
| 2026-04-21 04:11 | -33.93865 | 151.17601 | 27 ft | 16 kts | 348° |
| 2026-04-21 04:12 | -33.93751 | 151.17572 | 26 ft | 17 kts | 348° |
| 2026-04-21 04:12 | -33.93630 | 151.17540 | 25 ft | 19 kts | 348° |
| 2026-04-21 04:12 | -33.93506 | 151.17510 | 27 ft | 18 kts | 350° |
| 2026-04-21 04:12 | -33.93394 | 151.17501 | 27 ft | 15 kts | 355° |
| 2026-04-21 04:13 | -33.93292 | 151.17480 | 26 ft | 16 kts | 347° |
| 2026-04-21 04:13 | -33.93190 | 151.17454 | 27 ft | 8 kts | 348° |
| 2026-04-21 04:13 | -33.93161 | 151.17446 | 27 ft | 14 kts | 348° |
| 2026-04-21 04:13 | -33.93061 | 151.17421 | 29 ft | 15 kts | 347° |
| 2026-04-21 04:14 | -33.92979 | 151.17362 | 27 ft | 15 kts | 303° |
| 2026-04-21 04:14 | -33.92967 | 151.17327 | 26 ft | 0 kts | 288° |
| 2026-04-21 04:15 | -33.92966 | 151.17324 | 26 ft | 4 kts | 289° |
| 2026-04-21 04:15 | -33.92960 | 151.17261 | 29 ft | 8 kts | 259° |
| 2026-04-21 04:15 | -33.92988 | 151.17209 | 29 ft | 7 kts | 218° |
| 2026-04-21 04:15 | -33.93032 | 151.17190 | 29 ft | 7 kts | 186° |
| 2026-04-21 04:16 | -33.93074 | 151.17195 | 29 ft | 3 kts | 166° |
| 2026-04-21 04:17 | -33.93173 | 151.17221 | 28 ft | 48 kts | 168° |
| 2026-04-21 04:18 | -33.93778 | 151.17376 | 23 ft | 127 kts | 168° |
| 2026-04-21 04:18 | -33.94830 | 151.17642 | 267 ft | 170 kts | 171° |
| 2026-04-21 04:18 | -33.95598 | 151.17854 | 828 ft | 173 kts | 168° |
| 2026-04-21 04:18 | -33.97004 | 151.18318 | 2065 ft | 177 kts | 163° |
| 2026-04-21 04:19 | -33.98143 | 151.18773 | 3062 ft | 176 kts | 161° |
| 2026-04-21 04:19 | -33.99298 | 151.19309 | 3990 ft | 179 kts | 158° |
| 2026-04-21 04:19 | -34.00393 | 151.19913 | 4777 ft | 188 kts | 154° |
| 2026-04-21 04:19 | -34.01540 | 151.20966 | 5019 ft | 226 kts | 144° |
| 2026-04-21 04:20 | -34.03012 | 151.21594 | 5490 ft | 244 kts | 181° |
| 2026-04-21 04:20 | -34.04643 | 151.21062 | 6553 ft | 245 kts | 204° |
| 2026-04-21 04:20 | -34.06135 | 151.20026 | 7518 ft | 251 kts | 212° |
| 2026-04-21 04:20 | -34.07560 | 151.18777 | 8335 ft | 260 kts | 216° |
| 2026-04-21 04:21 | -34.09017 | 151.17414 | 9152 ft | 267 kts | 215° |
| 2026-04-21 04:21 | -34.10480 | 151.16065 | 10020 ft | 270 kts | 214° |
| 2026-04-21 04:21 | -34.12037 | 151.14688 | 10586 ft | 286 kts | 213° |
| 2026-04-21 04:21 | -34.13719 | 151.13265 | 10947 ft | 304 kts | 212° |
| 2026-04-21 04:22 | -34.15508 | 151.11801 | 11284 ft | 323 kts | 212° |
| 2026-04-21 04:22 | -34.17433 | 151.10249 | 11633 ft | 341 kts | 212° |
| 2026-04-21 04:22 | -34.19462 | 151.08622 | 11983 ft | 359 kts | 212° |
| 2026-04-21 04:22 | -34.21581 | 151.06920 | 12510 ft | 370 kts | 212° |
| 2026-04-21 04:23 | -34.23756 | 151.05167 | 13205 ft | 377 kts | 212° |
| 2026-04-21 04:23 | -34.25930 | 151.03408 | 13983 ft | 381 kts | 212° |
| 2026-04-21 04:23 | -34.28095 | 151.01653 | 14697 ft | 384 kts | 212° |
| 2026-04-21 04:23 | -34.30288 | 150.99874 | 15375 ft | 388 kts | 212° |
| 2026-04-21 04:24 | -34.32540 | 150.98046 | 16004 ft | 394 kts | 212° |
| 2026-04-21 04:24 | -34.34799 | 150.96211 | 16654 ft | 398 kts | 212° |
| 2026-04-21 04:24 | -34.36912 | 150.94494 | 17285 ft | 402 kts | 212° |
| 2026-04-21 04:24 | -34.39246 | 150.92597 | 17935 ft | 406 kts | 212° |
| 2026-04-21 04:25 | -34.41577 | 150.90701 | 18584 ft | 410 kts | 212° |
| 2026-04-21 04:25 | -34.43152 | 150.89419 | 18944 ft | 412 kts | 212° |
| 2026-04-21 04:25 | -34.45541 | 150.87475 | 19496 ft | 415 kts | 212° |
| 2026-04-21 04:25 | -34.47950 | 150.85512 | 20065 ft | 417 kts | 212° |
| 2026-04-21 04:26 | -34.50374 | 150.83535 | 20636 ft | 419 kts | 212° |
| 2026-04-21 04:26 | -34.52738 | 150.81597 | 21171 ft | 421 kts | 213° |
| 2026-04-21 04:26 | -34.55031 | 150.79398 | 21704 ft | 425 kts | 220° |
| 2026-04-21 04:26 | -34.57093 | 150.76789 | 22216 ft | 430 kts | 227° |
| 2026-04-21 04:27 | -34.58985 | 150.73960 | 22691 ft | 434 kts | 229° |
| 2026-04-21 04:27 | -34.60813 | 150.71018 | 23155 ft | 437 kts | 231° |
| 2026-04-21 04:27 | -34.62611 | 150.68012 | 23632 ft | 440 kts | 231° |
| 2026-04-21 04:27 | -34.64403 | 150.64977 | 24072 ft | 443 kts | 231° |
| 2026-04-21 04:28 | -34.66204 | 150.61925 | 24470 ft | 445 kts | 231° |
| 2026-04-21 04:28 | -34.67984 | 150.58923 | 24855 ft | 447 kts | 231° |
| 2026-04-21 04:28 | -34.69833 | 150.55820 | 25262 ft | 450 kts | 231° |
| 2026-04-21 04:28 | -34.71677 | 150.52739 | 25660 ft | 452 kts | 231° |
| 2026-04-21 04:29 | -34.73519 | 150.49666 | 26048 ft | 454 kts | 231° |
| 2026-04-21 04:29 | -34.75382 | 150.46557 | 26442 ft | 456 kts | 231° |
| 2026-04-21 04:29 | -34.76600 | 150.44524 | 26656 ft | 458 kts | 231° |
| 2026-04-21 04:29 | -34.77750 | 150.42604 | 26870 ft | 459 kts | 231° |
| 2026-04-21 04:30 | -34.79195 | 150.40190 | 27194 ft | 460 kts | 231° |
| 2026-04-21 04:30 | -34.81082 | 150.37033 | 27587 ft | 462 kts | 231° |
| 2026-04-21 04:30 | -34.82707 | 150.34311 | 27862 ft | 464 kts | 232° |
| 2026-04-21 04:30 | -34.84545 | 150.31232 | 28203 ft | 466 kts | 232° |
| 2026-04-21 04:31 | -34.86434 | 150.28063 | 28543 ft | 468 kts | 232° |
| 2026-04-21 04:31 | -34.88336 | 150.24872 | 28840 ft | 470 kts | 232° |
| 2026-04-21 04:31 | -34.90199 | 150.21741 | 29134 ft | 472 kts | 232° |
| 2026-04-21 04:31 | -34.91719 | 150.19183 | 29437 ft | 471 kts | 232° |
| 2026-04-21 04:32 | -34.93509 | 150.16168 | 29829 ft | 470 kts | 232° |
| 2026-04-21 04:32 | -34.95435 | 150.12921 | 30270 ft | 469 kts | 232° |
| 2026-04-21 04:32 | -34.97278 | 150.09813 | 30635 ft | 468 kts | 232° |
| 2026-04-21 04:32 | -34.99161 | 150.06635 | 30982 ft | 467 kts | 232° |
| 2026-04-21 04:33 | -35.01024 | 150.03488 | 31355 ft | 465 kts | 232° |
| 2026-04-21 04:33 | -35.02911 | 150.00297 | 31691 ft | 463 kts | 232° |
| 2026-04-21 04:33 | -35.04801 | 149.97099 | 32040 ft | 462 kts | 232° |
| 2026-04-21 04:33 | -35.06633 | 149.93998 | 32356 ft | 461 kts | 232° |
| 2026-04-21 04:34 | -35.08491 | 149.90851 | 32672 ft | 459 kts | 232° |
| 2026-04-21 04:34 | -35.10360 | 149.87679 | 32961 ft | 458 kts | 232° |
| 2026-04-21 04:34 | -35.12142 | 149.84650 | 33262 ft | 456 kts | 232° |
| 2026-04-21 04:34 | -35.13998 | 149.81493 | 33519 ft | 456 kts | 232° |
| 2026-04-21 04:35 | -35.15590 | 149.78783 | 33733 ft | 455 kts | 232° |
| 2026-04-21 04:35 | -35.17328 | 149.75824 | 33999 ft | 454 kts | 232° |
| 2026-04-21 04:35 | -35.19175 | 149.72675 | 34255 ft | 453 kts | 232° |
| 2026-04-21 04:35 | -35.20711 | 149.70056 | 34443 ft | 452 kts | 232° |
| 2026-04-21 04:36 | -35.22462 | 149.67066 | 34619 ft | 452 kts | 232° |
| 2026-04-21 04:36 | -35.24289 | 149.63946 | 34793 ft | 452 kts | 232° |
| 2026-04-21 04:36 | -35.25478 | 149.61913 | 34891 ft | 451 kts | 232° |
| 2026-04-21 04:36 | -35.27302 | 149.58792 | 35048 ft | 451 kts | 232° |
| 2026-04-21 04:37 | -35.28959 | 149.55954 | 35184 ft | 451 kts | 232° |
| 2026-04-21 04:37 | -35.30816 | 149.52772 | 35349 ft | 451 kts | 232° |
| 2026-04-21 04:37 | -35.32623 | 149.49672 | 35497 ft | 451 kts | 232° |
| 2026-04-21 04:37 | -35.34369 | 149.46675 | 35632 ft | 450 kts | 232° |
| 2026-04-21 04:38 | -35.35757 | 149.44289 | 35738 ft | 450 kts | 232° |
| 2026-04-21 04:38 | -35.37451 | 149.41376 | 35870 ft | 450 kts | 232° |
| 2026-04-21 04:38 | -35.39286 | 149.38217 | 36005 ft | 450 kts | 232° |
| 2026-04-21 04:38 | -35.41036 | 149.35204 | 36137 ft | 449 kts | 232° |
| 2026-04-21 04:39 | -35.42727 | 149.32288 | 36241 ft | 449 kts | 232° |
| 2026-04-21 04:39 | -35.46082 | 149.26496 | 36424 ft | 450 kts | 232° |
| 2026-04-21 04:39 | -35.47882 | 149.23386 | 36536 ft | 450 kts | 232° |
| 2026-04-21 04:40 | -35.49562 | 149.20480 | 36619 ft | 449 kts | 232° |
| 2026-04-21 04:40 | -35.53021 | 149.14487 | 36814 ft | 449 kts | 233° |
| 2026-04-21 04:41 | -35.56477 | 149.08492 | 36989 ft | 449 kts | 233° |
| 2026-04-21 04:41 | -35.59881 | 149.02575 | 37123 ft | 449 kts | 233° |
| 2026-04-21 04:42 | -35.63205 | 148.96787 | 37287 ft | 448 kts | 233° |
| 2026-04-21 04:42 | -35.66395 | 148.91224 | 37463 ft | 448 kts | 233° |
| 2026-04-21 04:43 | -35.69680 | 148.85486 | 37590 ft | 447 kts | 233° |
| 2026-04-21 04:43 | -35.72992 | 148.79692 | 37657 ft | 448 kts | 233° |
| 2026-04-21 04:44 | -35.76583 | 148.73400 | 37579 ft | 453 kts | 233° |
| 2026-04-21 04:44 | -35.78407 | 148.70201 | 37460 ft | 457 kts | 233° |
| 2026-04-21 04:44 | -35.80111 | 148.67209 | 37370 ft | 459 kts | 233° |
| 2026-04-21 04:45 | -35.83210 | 148.61759 | 37273 ft | 463 kts | 233° |
| 2026-04-21 04:45 | -35.86588 | 148.55807 | 37185 ft | 465 kts | 233° |
| 2026-04-21 04:46 | -35.90039 | 148.49726 | 37101 ft | 468 kts | 233° |
| 2026-04-21 04:46 | -35.93795 | 148.43057 | 37001 ft | 469 kts | 233° |
| 2026-04-21 04:47 | -35.97247 | 148.36903 | 36987 ft | 469 kts | 233° |
| 2026-04-21 04:47 | -36.00846 | 148.30484 | 36982 ft | 468 kts | 233° |
| 2026-04-21 04:48 | -36.04030 | 148.24802 | 36973 ft | 468 kts | 233° |
| 2026-04-21 04:48 | -36.07354 | 148.18858 | 36961 ft | 468 kts | 234° |
| 2026-04-21 04:49 | -36.10562 | 148.13115 | 36971 ft | 468 kts | 234° |
| 2026-04-21 04:49 | -36.14125 | 148.06744 | 36970 ft | 468 kts | 233° |
| 2026-04-21 04:50 | -36.17732 | 148.00292 | 36962 ft | 468 kts | 234° |
| 2026-04-21 04:50 | -36.21312 | 147.93873 | 36962 ft | 468 kts | 234° |
| 2026-04-21 04:51 | -36.24932 | 147.87370 | 36960 ft | 468 kts | 234° |
| 2026-04-21 04:51 | -36.28569 | 147.80825 | 36956 ft | 468 kts | 234° |
| 2026-04-21 04:52 | -36.32238 | 147.74211 | 36959 ft | 468 kts | 234° |
| 2026-04-21 04:52 | -36.35931 | 147.67549 | 36959 ft | 468 kts | 234° |
| 2026-04-21 04:53 | -36.39589 | 147.60905 | 36963 ft | 468 kts | 234° |
| 2026-04-21 04:53 | -36.43246 | 147.54246 | 36963 ft | 468 kts | 234° |
| 2026-04-21 04:54 | -36.46721 | 147.47913 | 36963 ft | 468 kts | 234° |
| 2026-04-21 04:54 | -36.50380 | 147.41237 | 36963 ft | 468 kts | 234° |
| 2026-04-21 04:55 | -36.54016 | 147.34590 | 36970 ft | 468 kts | 234° |
| 2026-04-21 04:55 | -36.57548 | 147.28120 | 36966 ft | 469 kts | 234° |
| 2026-04-21 04:56 | -36.60972 | 147.21835 | 36966 ft | 469 kts | 234° |
| 2026-04-21 04:56 | -36.64471 | 147.15402 | 36969 ft | 469 kts | 235° |
| 2026-04-21 04:57 | -36.67552 | 147.09726 | 36959 ft | 461 kts | 235° |
| 2026-04-21 04:57 | -36.69191 | 147.06703 | 36703 ft | 458 kts | 235° |
| 2026-04-21 04:57 | -36.70910 | 147.03532 | 35912 ft | 461 kts | 235° |
| 2026-04-21 04:57 | -36.72721 | 147.00199 | 35113 ft | 463 kts | 235° |
| 2026-04-21 04:58 | -36.74453 | 146.96998 | 34359 ft | 465 kts | 235° |
| 2026-04-21 04:58 | -36.76041 | 146.94056 | 33545 ft | 468 kts | 235° |
| 2026-04-21 04:58 | -36.77898 | 146.90610 | 32609 ft | 471 kts | 235° |
| 2026-04-21 04:58 | -36.79699 | 146.87265 | 31754 ft | 473 kts | 235° |
| 2026-04-21 04:59 | -36.81522 | 146.83876 | 30845 ft | 477 kts | 235° |
| 2026-04-21 04:59 | -36.83355 | 146.80468 | 29948 ft | 479 kts | 235° |
| 2026-04-21 04:59 | -36.85203 | 146.77028 | 29421 ft | 473 kts | 235° |
| 2026-04-21 04:59 | -36.86965 | 146.73745 | 28876 ft | 468 kts | 235° |
| 2026-04-21 05:00 | -36.88784 | 146.70352 | 28248 ft | 464 kts | 235° |
| 2026-04-21 05:00 | -36.90552 | 146.67052 | 27688 ft | 461 kts | 235° |
| 2026-04-21 05:00 | -36.94092 | 146.60435 | 26532 ft | 455 kts | 235° |
| 2026-04-21 05:01 | -36.95852 | 146.57141 | 25972 ft | 451 kts | 235° |
| 2026-04-21 05:01 | -36.97569 | 146.53924 | 25408 ft | 449 kts | 235° |
| 2026-04-21 05:01 | -36.99275 | 146.50726 | 24858 ft | 446 kts | 235° |
| 2026-04-21 05:01 | -37.00999 | 146.47488 | 24321 ft | 444 kts | 235° |
| 2026-04-21 05:02 | -37.02704 | 146.44285 | 23776 ft | 441 kts | 234° |
| 2026-04-21 05:02 | -37.04388 | 146.41118 | 23449 ft | 431 kts | 234° |
| 2026-04-21 05:02 | -37.06013 | 146.38058 | 23200 ft | 420 kts | 234° |
| 2026-04-21 05:02 | -37.07611 | 146.35046 | 22938 ft | 410 kts | 234° |
| 2026-04-21 05:03 | -37.08653 | 146.33086 | 22772 ft | 403 kts | 234° |
| 2026-04-21 05:03 | -37.10571 | 146.29472 | 22468 ft | 390 kts | 234° |
| 2026-04-21 05:03 | -37.12016 | 146.26739 | 22241 ft | 381 kts | 234° |
| 2026-04-21 05:03 | -37.13403 | 146.24109 | 22006 ft | 371 kts | 234° |
| 2026-04-21 05:04 | -37.14730 | 146.21594 | 21800 ft | 362 kts | 234° |
| 2026-04-21 05:04 | -37.15969 | 146.19245 | 21588 ft | 354 kts | 234° |
| 2026-04-21 05:04 | -37.17270 | 146.16777 | 21371 ft | 344 kts | 234° |
| 2026-04-21 05:04 | -37.18453 | 146.14534 | 21114 ft | 338 kts | 234° |
| 2026-04-21 05:05 | -37.19657 | 146.12249 | 20758 ft | 334 kts | 234° |
| 2026-04-21 05:05 | -37.20916 | 146.09863 | 20356 ft | 331 kts | 234° |
| 2026-04-21 05:05 | -37.22111 | 146.07596 | 19940 ft | 329 kts | 234° |
| 2026-04-21 05:05 | -37.23261 | 146.05412 | 19580 ft | 327 kts | 234° |
| 2026-04-21 05:06 | -37.24486 | 146.03081 | 19178 ft | 325 kts | 234° |
| 2026-04-21 05:06 | -37.25312 | 146.01510 | 18912 ft | 324 kts | 234° |
| 2026-04-21 05:06 | -37.26721 | 145.98826 | 18442 ft | 321 kts | 234° |
| 2026-04-21 05:06 | -37.27950 | 145.96486 | 17981 ft | 320 kts | 234° |
| 2026-04-21 05:07 | -37.29158 | 145.94183 | 17546 ft | 318 kts | 234° |
| 2026-04-21 05:07 | -37.30354 | 145.91900 | 17117 ft | 315 kts | 234° |
| 2026-04-21 05:07 | -37.31558 | 145.89607 | 16695 ft | 313 kts | 234° |
| 2026-04-21 05:07 | -37.32758 | 145.87325 | 16271 ft | 311 kts | 234° |
| 2026-04-21 05:08 | -37.33903 | 145.85144 | 15832 ft | 310 kts | 234° |
| 2026-04-21 05:08 | -37.35069 | 145.82922 | 15390 ft | 308 kts | 234° |
| 2026-04-21 05:08 | -37.36159 | 145.80841 | 15018 ft | 306 kts | 234° |
| 2026-04-21 05:08 | -37.36923 | 145.79382 | 14757 ft | 305 kts | 234° |
| 2026-04-21 05:09 | -37.37971 | 145.77381 | 14377 ft | 303 kts | 234° |
| 2026-04-21 05:09 | -37.39137 | 145.75157 | 13926 ft | 302 kts | 234° |
| 2026-04-21 05:09 | -37.40292 | 145.72952 | 13484 ft | 300 kts | 235° |
| 2026-04-21 05:09 | -37.41440 | 145.70755 | 13059 ft | 298 kts | 235° |
| 2026-04-21 05:10 | -37.42496 | 145.68735 | 12653 ft | 296 kts | 235° |
| 2026-04-21 05:10 | -37.43628 | 145.66567 | 12226 ft | 295 kts | 235° |
| 2026-04-21 05:10 | -37.44669 | 145.64350 | 11809 ft | 294 kts | 241° |
| 2026-04-21 05:10 | -37.45495 | 145.62028 | 11411 ft | 293 kts | 248° |
| 2026-04-21 05:11 | -37.45834 | 145.60886 | 11216 ft | 292 kts | 249° |
| 2026-04-21 05:11 | -37.46497 | 145.58527 | 10826 ft | 291 kts | 250° |
| 2026-04-21 05:11 | -37.47146 | 145.56118 | 10434 ft | 289 kts | 250° |
| 2026-04-21 05:11 | -37.47775 | 145.53738 | 10065 ft | 286 kts | 251° |
| 2026-04-21 05:12 | -37.48293 | 145.51767 | 9677 ft | 285 kts | 251° |
| 2026-04-21 05:12 | -37.48783 | 145.49903 | 9355 ft | 283 kts | 251° |
| 2026-04-21 05:12 | -37.49416 | 145.47497 | 9041 ft | 278 kts | 251° |
| 2026-04-21 05:12 | -37.50024 | 145.45198 | 9006 ft | 278 kts | 251° |
| 2026-04-21 05:13 | -37.50496 | 145.43416 | 9007 ft | 280 kts | 251° |
| 2026-04-21 05:13 | -37.51050 | 145.41322 | 9003 ft | 280 kts | 251° |
| 2026-04-21 05:13 | -37.51649 | 145.39057 | 9002 ft | 280 kts | 251° |
| 2026-04-21 05:13 | -37.52267 | 145.36727 | 9001 ft | 279 kts | 251° |
| 2026-04-21 05:14 | -37.52902 | 145.34458 | 9000 ft | 280 kts | 246° |
| 2026-04-21 05:14 | -37.53855 | 145.32433 | 8995 ft | 279 kts | 230° |
| 2026-04-21 05:14 | -37.54047 | 145.32147 | 9005 ft | 278 kts | 228° |
| 2026-04-21 05:14 | -37.55250 | 145.30655 | 8994 ft | 277 kts | 223° |
| 2026-04-21 05:15 | -37.56667 | 145.29009 | 8603 ft | 276 kts | 223° |
| 2026-04-21 05:15 | -37.58065 | 145.27395 | 8188 ft | 274 kts | 223° |
| 2026-04-21 05:15 | -37.59464 | 145.25793 | 7833 ft | 271 kts | 223° |
| 2026-04-21 05:15 | -37.60828 | 145.24240 | 7359 ft | 273 kts | 223° |
| 2026-04-21 05:16 | -37.62243 | 145.22634 | 6962 ft | 272 kts | 223° |
| 2026-04-21 05:16 | -37.63063 | 145.21704 | 6725 ft | 272 kts | 223° |
| 2026-04-21 05:16 | -37.64449 | 145.20133 | 6305 ft | 271 kts | 224° |
| 2026-04-21 05:16 | -37.65651 | 145.18770 | 5961 ft | 269 kts | 223° |
| 2026-04-21 05:17 | -37.67019 | 145.17218 | 5539 ft | 269 kts | 223° |
| 2026-04-21 05:17 | -37.68134 | 145.15955 | 5232 ft | 268 kts | 224° |
| 2026-04-21 05:17 | -37.69177 | 145.14775 | 4938 ft | 267 kts | 223° |
| 2026-04-21 05:17 | -37.70586 | 145.13180 | 4474 ft | 268 kts | 223° |
| 2026-04-21 05:18 | -37.71696 | 145.11921 | 4149 ft | 267 kts | 224° |
| 2026-04-21 05:18 | -37.72668 | 145.10815 | 4019 ft | 264 kts | 224° |
| 2026-04-21 05:18 | -37.74057 | 145.09239 | 3846 ft | 266 kts | 223° |
| 2026-04-21 05:18 | -37.75421 | 145.07694 | 3391 ft | 267 kts | 223° |
| 2026-04-21 05:19 | -37.76761 | 145.06178 | 3076 ft | 266 kts | 223° |
| 2026-04-21 05:19 | -37.77998 | 145.04773 | 2993 ft | 268 kts | 224° |
| 2026-04-21 05:19 | -37.79404 | 145.03168 | 2959 ft | 269 kts | 224° |
| 2026-04-21 05:19 | -37.80699 | 145.01597 | 2735 ft | 261 kts | 230° |
| 2026-04-21 05:20 | -37.81541 | 144.99779 | 2538 ft | 246 kts | 256° |
| 2026-04-21 05:20 | -37.81940 | 144.97754 | 2479 ft | 229 kts | 261° |
| 2026-04-21 05:20 | -37.82247 | 144.95950 | 2487 ft | 215 kts | 261° |
| 2026-04-21 05:20 | -37.82554 | 144.94163 | 2502 ft | 214 kts | 260° |
| 2026-04-21 05:21 | -37.82817 | 144.92442 | 2496 ft | 215 kts | 264° |
| 2026-04-21 05:21 | -37.82983 | 144.90977 | 2495 ft | 214 kts | 265° |
| 2026-04-21 05:21 | -37.83109 | 144.89109 | 2482 ft | 212 kts | 276° |
| 2026-04-21 05:21 | -37.82613 | 144.87413 | 2485 ft | 206 kts | 312° |
| 2026-04-21 05:22 | -37.81958 | 144.86738 | 2484 ft | 202 kts | 335° |
| 2026-04-21 05:22 | -37.81038 | 144.86414 | 2511 ft | 200 kts | 356° |
| 2026-04-21 05:22 | -37.79631 | 144.86448 | 2524 ft | 202 kts | 1° |
| 2026-04-21 05:22 | -37.78228 | 144.86278 | 2519 ft | 202 kts | 350° |
| 2026-04-21 05:23 | -37.76864 | 144.85960 | 2525 ft | 202 kts | 349° |
| 2026-04-21 05:23 | -37.75553 | 144.85629 | 2476 ft | 202 kts | 348° |
| 2026-04-21 05:23 | -37.74352 | 144.85301 | 2253 ft | 194 kts | 350° |
| 2026-04-21 05:23 | -37.73691 | 144.85133 | 2044 ft | 191 kts | 349° |
| 2026-04-21 05:24 | -37.72452 | 144.84885 | 1590 ft | 190 kts | 350° |
| 2026-04-21 05:24 | -37.71183 | 144.84574 | 1180 ft | 187 kts | 349° |
| 2026-04-21 05:24 | -37.70236 | 144.84374 | 951 ft | 186 kts | 353° |
| 2026-04-21 05:24 | -37.69080 | 144.84185 | 635 ft | 177 kts | 355° |
| 2026-04-21 05:25 | -37.67910 | 144.83981 | 363 ft | 147 kts | 351° |
| 2026-04-21 05:25 | -37.67515 | 144.83912 | 375 ft | 96 kts | 354° |
| 2026-04-21 05:25 | -37.67136 | 144.83843 | 384 ft | 47 kts | 353° |
| 2026-04-21 05:25 | -37.66956 | 144.83863 | 388 ft | 24 kts | 14° |
| 2026-04-21 05:26 | -37.66856 | 144.83906 | 389 ft | 0 kts | 21° |
| 2026-04-21 05:27 | -37.66842 | 144.83913 | 389 ft | 5 kts | 21° |
| 2026-04-21 05:27 | -37.66815 | 144.83927 | 389 ft | 6 kts | 21° |
| 2026-04-21 05:27 | -37.66775 | 144.83952 | 388 ft | 7 kts | 29° |
| 2026-04-21 05:27 | -37.66740 | 144.83987 | 388 ft | 8 kts | 48° |
| 2026-04-21 05:28 | -37.66724 | 144.84044 | 386 ft | 9 kts | 75° |
| 2026-04-21 05:28 | -37.66718 | 144.84102 | 384 ft | 10 kts | 95° |
| 2026-04-21 05:28 | -37.66738 | 144.84134 | 383 ft | 10 kts | 142° |
| 2026-04-21 05:28 | -37.66807 | 144.84187 | 381 ft | 13 kts | 159° |
| 2026-04-21 05:29 | -37.66856 | 144.84205 | 380 ft | 13 kts | 169° |
| 2026-04-21 05:29 | -37.66942 | 144.84223 | 378 ft | 14 kts | 171° |
| 2026-04-21 05:29 | -37.67043 | 144.84243 | 376 ft | 16 kts | 171° |
| 2026-04-21 05:29 | -37.67122 | 144.84254 | 375 ft | 17 kts | 171° |
| 2026-04-21 05:30 | -37.67231 | 144.84276 | 374 ft | 19 kts | 171° |
| 2026-04-21 05:30 | -37.67365 | 144.84302 | 373 ft | 21 kts | 171° |
| 2026-04-21 05:30 | -37.67472 | 144.84424 | 372 ft | 22 kts | 110° |
| 2026-04-21 05:30 | -37.67461 | 144.84510 | 371 ft | 18 kts | 59° |
| 2026-04-21 05:31 | -37.67431 | 144.84649 | 369 ft | 19 kts | 78° |
| 2026-04-21 05:31 | -37.67480 | 144.84731 | 366 ft | 11 kts | 164° |
| 2026-04-21 05:31 | -37.67515 | 144.84740 | 362 ft | 0 kts | 170° |